createdAt,value
2023-12-30T00:01:32.941Z,4.40
2023-12-30T00:04:01.131Z,4.30
2023-12-30T00:06:29.557Z,4.20
2023-12-30T00:08:57.622Z,4.20
2023-12-30T00:11:25.703Z,4.10
2023-12-30T00:13:53.721Z,4.02
2023-12-30T00:16:21.769Z,4.00
2023-12-30T00:18:50.033Z,3.94
2023-12-30T00:21:22.131Z,3.92
2023-12-30T00:23:51.204Z,3.90
2023-12-30T00:26:23.339Z,3.90
2023-12-30T00:29:01.431Z,3.90
2023-12-30T00:31:31.054Z,3.90
2023-12-30T00:34:01.653Z,3.80
2023-12-30T00:36:30.312Z,3.70
2023-12-30T00:38:58.363Z,3.78
2023-12-30T00:41:27.916Z,3.80
2023-12-30T00:43:55.998Z,3.70
2023-12-30T00:46:24.113Z,3.60
2023-12-30T00:48:57.246Z,3.60
2023-12-30T00:51:27.462Z,3.60
2023-12-30T00:53:55.554Z,3.54
2023-12-30T00:56:23.709Z,3.50
2023-12-30T00:58:51.793Z,3.50
2023-12-30T01:01:19.910Z,3.48
2023-12-30T01:03:48.378Z,3.50
2023-12-30T01:06:16.561Z,3.50
2023-12-30T01:08:48.240Z,3.50
2023-12-30T01:11:16.393Z,3.40
2023-12-30T01:13:44.596Z,3.40
2023-12-30T01:16:12.932Z,3.30
2023-12-30T01:18:41.647Z,3.20
2023-12-30T01:21:09.796Z,3.20
2023-12-30T01:23:37.912Z,3.16
2023-12-30T01:26:06.104Z,3.20
2023-12-30T01:28:35.474Z,3.20
2023-12-30T01:31:04.299Z,3.20
2023-12-30T01:33:32.586Z,3.20
2023-12-30T01:36:01.379Z,3.18
2023-12-30T01:38:29.475Z,3.12
2023-12-30T01:40:58.223Z,3.10
2023-12-30T01:43:28.443Z,3.10
2023-12-30T01:46:04.771Z,3.00
2023-12-30T01:48:33.636Z,2.90
2023-12-30T01:51:04.080Z,2.90
2023-12-30T01:53:36.639Z,2.80
2023-12-30T01:56:05.425Z,2.70
2023-12-30T01:58:35.640Z,2.70
2023-12-30T02:01:05.183Z,2.70
2023-12-30T02:03:35.060Z,2.70
2023-12-30T02:06:03.169Z,2.70
2023-12-30T02:08:31.751Z,2.80
2023-12-30T02:11:04.274Z,2.80
2023-12-30T02:13:32.354Z,2.70
2023-12-30T02:16:00.470Z,2.66
2023-12-30T02:18:28.856Z,2.60
2023-12-30T02:20:56.982Z,2.50
2023-12-30T02:23:25.030Z,2.40
2023-12-30T02:25:53.128Z,2.40
2023-12-30T02:28:21.348Z,2.40
2023-12-30T02:30:49.527Z,2.30
2023-12-30T02:33:17.651Z,2.30
2023-12-30T02:35:45.765Z,2.24
2023-12-30T02:38:13.709Z,2.18
2023-12-30T02:40:41.761Z,2.18
2023-12-30T02:43:09.911Z,2.14
2023-12-30T02:45:38.199Z,2.18
2023-12-30T02:48:06.994Z,2.20
2023-12-30T02:50:35.107Z,2.12
2023-12-30T02:53:03.412Z,2.10
2023-12-30T02:55:31.822Z,2.16
2023-12-30T02:58:00.179Z,2.20
2023-12-30T03:00:29.032Z,2.20
2023-12-30T03:02:57.077Z,2.20
2023-12-30T03:05:25.169Z,2.20
2023-12-30T03:07:53.187Z,2.20
2023-12-30T03:10:21.460Z,2.20
2023-12-30T03:12:49.657Z,2.18
2023-12-30T03:15:17.785Z,2.10
2023-12-30T03:17:46.015Z,2.10
2023-12-30T03:20:14.350Z,2.10
2023-12-30T03:22:42.476Z,2.00
2023-12-30T03:25:10.512Z,1.90
2023-12-30T03:27:38.757Z,1.80
2023-12-30T03:30:07.864Z,1.74
2023-12-30T03:32:36.218Z,1.72
2023-12-30T03:35:04.842Z,1.70
2023-12-30T03:37:32.879Z,1.70
2023-12-30T03:40:00.944Z,1.60
2023-12-30T03:42:28.975Z,1.58
2023-12-30T03:44:58.199Z,1.60
2023-12-30T03:47:26.436Z,1.60
2023-12-30T03:49:54.531Z,1.54
2023-12-30T03:52:22.802Z,1.50
2023-12-30T03:54:53.491Z,1.50
2023-12-30T03:57:21.630Z,1.40
2023-12-30T03:59:49.675Z,1.30
2023-12-30T04:02:22.242Z,1.20
2023-12-30T04:04:51.290Z,1.20
2023-12-30T04:07:19.369Z,1.20
2023-12-30T04:09:47.732Z,1.20
2023-12-30T04:12:15.871Z,1.14
2023-12-30T04:14:45.373Z,1.20
2023-12-30T04:17:13.669Z,1.20
2023-12-30T04:19:41.934Z,1.20
2023-12-30T04:22:09.975Z,1.20
2023-12-30T04:24:38.249Z,1.20
2023-12-30T04:27:06.371Z,1.20
2023-12-30T04:29:34.392Z,1.20
2023-12-30T04:32:02.359Z,1.28
2023-12-30T04:34:30.546Z,1.30
2023-12-30T04:36:58.828Z,1.30
2023-12-30T04:39:26.853Z,1.30
2023-12-30T04:41:58.516Z,1.28
2023-12-30T04:44:26.713Z,1.30
2023-12-30T04:46:54.755Z,1.28
2023-12-30T04:49:23.108Z,1.20
2023-12-30T04:51:51.259Z,1.20
2023-12-30T04:54:19.360Z,1.20
2023-12-30T04:56:47.563Z,1.20
2023-12-30T04:59:15.603Z,1.20
2023-12-30T05:01:43.824Z,1.10
2023-12-30T05:04:12.457Z,1.00
2023-12-30T05:06:40.560Z,1.00
2023-12-30T05:09:10.075Z,0.92
2023-12-30T05:11:39.093Z,0.90
2023-12-30T05:14:07.865Z,0.90
2023-12-30T05:16:43.653Z,0.90
2023-12-30T05:19:12.509Z,0.80
2023-12-30T05:21:42.398Z,0.80
2023-12-30T05:24:11.414Z,0.70
2023-12-30T05:26:39.591Z,0.70
2023-12-30T05:29:07.686Z,0.80
2023-12-30T05:31:35.763Z,0.80
2023-12-30T05:34:05.477Z,0.78
2023-12-30T05:36:33.783Z,0.68
2023-12-30T05:39:01.863Z,0.60
2023-12-30T05:41:30.018Z,0.54
2023-12-30T05:43:57.966Z,0.60
2023-12-30T05:46:26.661Z,0.60
2023-12-30T05:48:54.938Z,0.60
2023-12-30T05:51:24.952Z,0.56
2023-12-30T05:53:53.181Z,0.50
2023-12-30T05:56:23.372Z,0.58
2023-12-30T05:58:56.419Z,0.60
2023-12-30T06:01:24.651Z,0.60
2023-12-30T06:03:53.316Z,0.60
2023-12-30T06:06:21.696Z,0.62
2023-12-30T06:08:50.296Z,0.66
2023-12-30T06:11:18.639Z,0.70
2023-12-30T06:13:47.436Z,0.70
2023-12-30T06:16:15.499Z,0.70
2023-12-30T06:18:43.675Z,0.70
2023-12-30T06:21:12.101Z,0.64
2023-12-30T06:23:40.244Z,0.70
2023-12-30T06:26:08.266Z,0.74
2023-12-30T06:28:37.357Z,0.80
2023-12-30T06:31:05.619Z,0.90
2023-12-30T06:33:33.910Z,0.96
2023-12-30T06:36:02.167Z,1.08
2023-12-30T06:38:30.149Z,1.30
2023-12-30T06:40:58.154Z,1.72
2023-12-30T06:43:26.396Z,2.32
2023-12-30T06:45:55.328Z,2.94
2023-12-30T06:48:23.460Z,3.64
2023-12-30T06:50:52.260Z,4.36
2023-12-30T06:53:20.213Z,5.20
2023-12-30T06:55:48.892Z,5.96
2023-12-30T06:58:17.150Z,6.74
2023-12-30T07:00:45.160Z,7.70
2023-12-30T07:03:14.981Z,8.60
2023-12-30T07:05:43.256Z,9.54
2023-12-30T07:08:11.331Z,10.04
2023-12-30T07:10:40.209Z,10.50
2023-12-30T07:13:08.504Z,10.86
2023-12-30T07:15:36.467Z,11.36
2023-12-30T07:18:05.358Z,11.50
2023-12-30T07:20:33.767Z,11.30
2023-12-30T07:23:03.579Z,11.30
2023-12-30T07:25:31.935Z,11.34
2023-12-30T07:28:00.068Z,11.84
2023-12-30T07:30:28.211Z,12.40
2023-12-30T07:32:56.361Z,12.68
2023-12-30T07:35:25.518Z,13.22
2023-12-30T07:37:53.798Z,13.80
2023-12-30T07:40:22.670Z,13.92
2023-12-30T07:42:51.157Z,13.90
2023-12-30T07:45:19.114Z,14.10
2023-12-30T07:47:47.607Z,14.38
2023-12-30T07:50:16.662Z,14.70
2023-12-30T07:52:44.710Z,14.98
2023-12-30T07:55:12.831Z,15.00
2023-12-30T07:57:41.176Z,15.06
2023-12-30T08:00:09.844Z,15.30
2023-12-30T08:02:42.264Z,15.42
2023-12-30T08:05:10.730Z,15.50
2023-12-30T08:07:38.814Z,15.76
2023-12-30T08:10:07.540Z,16.00
2023-12-30T08:12:37.891Z,16.20
2023-12-30T08:15:07.264Z,16.34
2023-12-30T08:17:35.388Z,16.50
2023-12-30T08:20:04.933Z,16.40
2023-12-30T08:22:33.744Z,16.40
2023-12-30T08:25:02.147Z,16.68
2023-12-30T08:27:30.211Z,16.90
2023-12-30T08:29:58.277Z,17.14
2023-12-30T08:32:26.434Z,17.20
2023-12-30T08:34:55.700Z,17.20
2023-12-30T08:37:24.937Z,17.30
2023-12-30T08:39:53.090Z,17.30
2023-12-30T08:42:23.180Z,17.40
2023-12-30T08:44:51.138Z,17.60
2023-12-30T08:47:19.355Z,17.84
2023-12-30T08:49:47.728Z,18.10
2023-12-30T08:52:15.973Z,18.10
2023-12-30T08:54:44.004Z,18.18
2023-12-30T08:57:12.029Z,18.38
2023-12-30T08:59:41.338Z,18.50
2023-12-30T09:02:09.385Z,18.50
2023-12-30T09:04:37.767Z,18.50
2023-12-30T09:07:05.810Z,18.36
2023-12-30T09:09:33.828Z,18.40
2023-12-30T09:12:01.954Z,18.40
2023-12-30T09:14:30.046Z,18.40
2023-12-30T09:16:58.373Z,18.30
2023-12-30T09:19:26.599Z,18.30
2023-12-30T09:21:54.810Z,18.30
2023-12-30T09:24:22.980Z,18.30
2023-12-30T09:26:50.991Z,18.10
2023-12-30T09:29:19.289Z,18.10
2023-12-30T09:31:47.518Z,18.10
2023-12-30T09:34:20.897Z,18.20
2023-12-30T09:36:54.801Z,18.20
2023-12-30T09:39:22.865Z,18.24
2023-12-30T09:41:51.247Z,18.48
2023-12-30T09:44:19.770Z,18.64
2023-12-30T09:46:48.791Z,18.90
2023-12-30T09:49:17.474Z,18.98
2023-12-30T09:51:45.523Z,19.10
2023-12-30T09:54:14.185Z,19.00
2023-12-30T09:56:45.169Z,19.00
2023-12-30T09:59:13.307Z,18.90
2023-12-30T10:01:42.086Z,18.80
2023-12-30T10:04:10.508Z,18.68
2023-12-30T10:06:39.615Z,18.40
2023-12-30T10:09:07.978Z,18.30
2023-12-30T10:11:36.886Z,18.40
2023-12-30T10:14:05.494Z,18.40
2023-12-30T10:16:33.689Z,18.56
2023-12-30T10:19:02.428Z,18.54
2023-12-30T10:21:31.029Z,18.50
2023-12-30T10:24:01.755Z,18.50
2023-12-30T10:26:29.859Z,18.54
2023-12-30T10:28:58.465Z,18.60
2023-12-30T10:31:26.838Z,18.60
2023-12-30T10:33:55.584Z,18.60
2023-12-30T10:36:23.902Z,18.52
2023-12-30T10:38:54.201Z,18.50
2023-12-30T10:41:22.379Z,18.50
2023-12-30T10:43:50.449Z,18.40
2023-12-30T10:46:20.634Z,18.30
2023-12-30T10:48:52.599Z,18.30
2023-12-30T10:51:31.891Z,18.30
2023-12-30T10:54:08.101Z,18.10
2023-12-30T10:56:41.230Z,17.94
2023-12-30T10:59:09.937Z,17.90
2023-12-30T11:01:38.061Z,17.68
2023-12-30T11:04:13.232Z,17.50
2023-12-30T11:06:52.939Z,17.20
2023-12-30T11:09:31.420Z,16.90
2023-12-30T11:12:03.656Z,16.48
2023-12-30T11:14:32.721Z,16.14
2023-12-30T11:17:00.806Z,15.90
2023-12-30T11:19:33.421Z,15.70
2023-12-30T11:22:06.152Z,15.60
2023-12-30T11:24:35.518Z,15.50
2023-12-30T11:27:03.933Z,15.40
2023-12-30T11:29:32.022Z,15.40
2023-12-30T11:32:00.424Z,15.30
2023-12-30T11:34:29.136Z,15.30
2023-12-30T11:36:59.949Z,15.30
2023-12-30T11:39:29.798Z,15.30
2023-12-30T11:41:59.720Z,15.26
2023-12-30T11:44:29.485Z,15.20
2023-12-30T11:46:58.883Z,15.20
2023-12-30T11:49:27.807Z,15.20
2023-12-30T11:52:04.385Z,15.30
2023-12-30T11:54:34.334Z,15.30
2023-12-30T11:57:02.740Z,15.30
2023-12-30T11:59:30.845Z,15.30
2023-12-30T12:02:15.823Z,15.30
2023-12-30T12:04:44.564Z,15.30
2023-12-30T12:07:13.725Z,15.34
2023-12-30T12:09:44.196Z,15.30
2023-12-30T12:12:15.441Z,15.30
2023-12-30T12:14:51.657Z,15.40
2023-12-30T12:17:21.283Z,15.50
2023-12-30T12:19:49.693Z,15.42
2023-12-30T12:22:17.858Z,15.40
2023-12-30T12:24:46.040Z,15.40
2023-12-30T12:27:23.238Z,15.50
2023-12-30T12:29:53.068Z,15.50
2023-12-30T12:32:22.567Z,15.50
2023-12-30T12:34:51.521Z,15.50
2023-12-30T12:37:20.641Z,15.50
2023-12-30T12:39:48.637Z,15.50
2023-12-30T12:42:26.973Z,15.50
2023-12-30T12:44:59.296Z,15.60
2023-12-30T12:47:27.646Z,15.60
2023-12-30T12:49:56.031Z,15.60
2023-12-30T12:52:24.303Z,15.70
2023-12-30T12:54:52.608Z,15.70
2023-12-30T12:57:20.834Z,15.70
2023-12-30T12:59:49.030Z,15.70
2023-12-30T13:02:17.724Z,15.80
2023-12-30T13:04:45.916Z,15.80
2023-12-30T13:07:14.504Z,15.80
2023-12-30T13:09:57.964Z,15.86
2023-12-30T13:12:26.402Z,15.90
2023-12-30T13:14:57.484Z,15.90
2023-12-30T13:17:25.838Z,16.00
2023-12-30T13:19:53.956Z,16.00
2023-12-30T13:22:23.690Z,16.00
2023-12-30T13:24:52.727Z,16.00
2023-12-30T13:27:21.543Z,15.98
2023-12-30T13:29:50.032Z,16.00
2023-12-30T13:32:17.986Z,16.00
2023-12-30T13:34:47.662Z,16.00
2023-12-30T13:37:15.866Z,16.06
2023-12-30T13:39:43.963Z,16.00
2023-12-30T13:42:15.498Z,16.00
2023-12-30T13:44:45.279Z,15.90
2023-12-30T13:47:36.417Z,15.80
2023-12-30T13:50:21.174Z,15.80
2023-12-30T13:52:51.963Z,15.70
2023-12-30T13:55:21.722Z,15.60
2023-12-30T13:57:54.125Z,15.50
2023-12-30T14:00:22.798Z,15.40
2023-12-30T14:02:54.214Z,15.22
2023-12-30T14:05:31.873Z,15.10
2023-12-30T14:08:17.717Z,15.10
2023-12-30T14:10:49.728Z,14.90
2023-12-30T14:13:20.503Z,14.84
2023-12-30T14:15:49.235Z,14.80
2023-12-30T14:18:18.392Z,14.70
2023-12-30T14:20:47.991Z,14.60
2023-12-30T14:23:16.014Z,14.50
2023-12-30T14:25:45.841Z,14.40
2023-12-30T14:28:14.701Z,14.30
2023-12-30T14:30:44.264Z,14.20
2023-12-30T14:33:12.806Z,14.10
2023-12-30T14:35:42.069Z,14.00
2023-12-30T14:38:11.324Z,13.96
2023-12-30T14:40:39.431Z,13.80
2023-12-30T14:43:07.879Z,13.80
2023-12-30T14:45:36.088Z,13.70
2023-12-30T14:48:05.397Z,13.70
2023-12-30T14:50:33.628Z,13.60
2023-12-30T14:53:01.905Z,13.60
2023-12-30T14:55:30.380Z,13.50
2023-12-30T14:57:58.548Z,13.40
2023-12-30T15:00:26.571Z,13.30
2023-12-30T15:02:56.081Z,13.20
2023-12-30T15:05:24.382Z,13.20
2023-12-30T15:07:55.881Z,13.10
2023-12-30T15:10:26.600Z,13.00
2023-12-30T15:12:54.739Z,12.94
2023-12-30T15:15:23.830Z,12.90
2023-12-30T15:17:52.388Z,12.90
2023-12-30T15:20:21.048Z,12.80
2023-12-30T15:22:49.342Z,12.72
2023-12-30T15:25:20.065Z,12.70
2023-12-30T15:27:53.754Z,12.70
2023-12-30T15:30:25.742Z,12.68
2023-12-30T15:32:56.081Z,12.60
2023-12-30T15:35:24.550Z,12.56
2023-12-30T15:37:53.360Z,12.50
2023-12-30T15:40:21.543Z,12.50
2023-12-30T15:42:49.963Z,12.40
2023-12-30T15:45:17.926Z,12.40
2023-12-30T15:47:48.651Z,12.30
2023-12-30T15:50:16.879Z,12.30
2023-12-30T15:52:45.425Z,12.20
2023-12-30T15:55:14.813Z,12.20
2023-12-30T15:57:43.360Z,12.20
2023-12-30T16:00:12.434Z,12.14
2023-12-30T16:02:40.904Z,12.10
2023-12-30T16:05:09.074Z,12.10
2023-12-30T16:07:37.510Z,12.10
2023-12-30T16:10:06.572Z,12.10
2023-12-30T16:12:35.082Z,12.00
2023-12-30T16:15:03.375Z,12.00
2023-12-30T16:17:31.753Z,12.00
2023-12-30T16:20:01.432Z,12.00
2023-12-30T16:22:29.771Z,12.00
2023-12-30T16:24:58.347Z,12.00
2023-12-30T16:27:26.619Z,12.00
2023-12-30T16:29:54.908Z,12.00
2023-12-30T16:32:22.975Z,11.90
2023-12-30T16:34:51.052Z,11.90
2023-12-30T16:37:23.791Z,11.90
2023-12-30T16:39:52.806Z,11.84
2023-12-30T16:42:22.270Z,11.80
2023-12-30T16:44:50.485Z,11.80
2023-12-30T16:47:18.621Z,11.70
2023-12-30T16:49:46.737Z,11.70
2023-12-30T16:52:14.910Z,11.70
2023-12-30T16:54:43.465Z,11.62
2023-12-30T16:57:11.713Z,11.60
2023-12-30T16:59:40.200Z,11.50
2023-12-30T17:02:08.344Z,11.50
2023-12-30T17:04:36.775Z,11.40
2023-12-30T17:07:05.071Z,11.30
2023-12-30T17:09:33.378Z,11.20
2023-12-30T17:12:01.598Z,11.20
2023-12-30T17:14:29.660Z,11.10
2023-12-30T17:16:57.853Z,11.04
2023-12-30T17:19:25.906Z,11.00
2023-12-30T17:21:53.988Z,10.90
2023-12-30T17:24:22.168Z,10.90
2023-12-30T17:26:50.277Z,10.90
2023-12-30T17:29:18.322Z,10.80
2023-12-30T17:31:46.445Z,10.80
2023-12-30T17:34:14.623Z,10.80
2023-12-30T17:36:42.635Z,10.80
2023-12-30T17:39:10.987Z,10.80
2023-12-30T17:41:38.965Z,10.70
2023-12-30T17:44:07.625Z,10.60
2023-12-30T17:46:35.789Z,10.50
2023-12-30T17:49:03.936Z,10.50
2023-12-30T17:51:32.033Z,10.50
2023-12-30T17:54:00.134Z,10.50
2023-12-30T17:56:30.194Z,10.50
2023-12-30T17:58:58.188Z,10.50
2023-12-30T18:01:26.920Z,10.60
2023-12-30T18:03:55.131Z,10.60
2023-12-30T18:06:23.613Z,10.60
2023-12-30T18:08:51.776Z,10.64
2023-12-30T18:11:20.528Z,10.70
2023-12-30T18:13:48.741Z,10.70
2023-12-30T18:16:16.946Z,10.70
2023-12-30T18:18:45.122Z,10.70
2023-12-30T18:21:13.650Z,10.70
2023-12-30T18:23:41.769Z,10.68
2023-12-30T18:26:13.770Z,10.60
2023-12-30T18:28:41.988Z,10.60
2023-12-30T18:31:10.842Z,10.60
2023-12-30T18:33:39.172Z,10.50
2023-12-30T18:36:07.790Z,10.50
2023-12-30T18:38:36.368Z,10.40
2023-12-30T18:41:04.894Z,10.30
2023-12-30T18:43:34.630Z,10.20
2023-12-30T18:46:02.967Z,10.16
2023-12-30T18:48:31.365Z,10.10
2023-12-30T18:50:59.601Z,10.10
2023-12-30T18:53:27.680Z,10.10
2023-12-30T18:55:55.882Z,10.00
2023-12-30T18:58:24.996Z,10.00
2023-12-30T19:00:53.088Z,9.88
2023-12-30T19:03:21.273Z,9.82
2023-12-30T19:05:49.519Z,9.70
2023-12-30T19:08:17.961Z,9.60
2023-12-30T19:10:46.108Z,9.42
2023-12-30T19:13:15.842Z,9.38
2023-12-30T19:15:43.912Z,9.30
2023-12-30T19:18:12.649Z,9.20
2023-12-30T19:20:41.072Z,9.12
2023-12-30T19:23:09.325Z,9.10
2023-12-30T19:25:37.379Z,9.00
2023-12-30T19:28:05.980Z,9.00
2023-12-30T19:30:34.241Z,8.90
2023-12-30T19:33:05.693Z,8.90
2023-12-30T19:35:34.894Z,8.90
2023-12-30T19:38:04.112Z,8.84
2023-12-30T19:40:32.247Z,8.80
2023-12-30T19:43:00.388Z,8.80
2023-12-30T19:45:28.673Z,8.72
2023-12-30T19:47:56.838Z,8.70
2023-12-30T19:50:24.952Z,8.50
2023-12-30T19:52:53.089Z,8.40
2023-12-30T19:55:21.448Z,8.30
2023-12-30T19:57:49.778Z,8.20
2023-12-30T20:00:18.249Z,8.20
2023-12-30T20:02:47.895Z,8.10
2023-12-30T20:05:18.900Z,8.00
2023-12-30T20:07:47.363Z,7.90
2023-12-30T20:10:15.659Z,7.80
2023-12-30T20:12:43.909Z,7.70
2023-12-30T20:15:12.128Z,7.60
2023-12-30T20:17:40.447Z,7.60
2023-12-30T20:20:09.744Z,7.60
2023-12-30T20:22:37.990Z,7.50
2023-12-30T20:25:07.246Z,7.50
2023-12-30T20:27:35.470Z,7.40
2023-12-30T20:30:06.007Z,7.40
2023-12-30T20:32:37.997Z,7.36
2023-12-30T20:35:06.520Z,7.30
2023-12-30T20:37:34.718Z,7.30
2023-12-30T20:40:04.016Z,7.30
2023-12-30T20:42:32.043Z,7.30
2023-12-30T20:45:00.180Z,7.30
2023-12-30T20:47:28.378Z,7.30
2023-12-30T20:49:56.649Z,7.28
2023-12-30T20:52:24.889Z,7.20
2023-12-30T20:54:53.014Z,7.10
2023-12-30T20:57:21.098Z,7.00
2023-12-30T20:59:49.079Z,6.90
2023-12-30T21:02:17.194Z,6.80
2023-12-30T21:04:45.309Z,6.76
2023-12-30T21:07:13.769Z,6.64
2023-12-30T21:09:41.893Z,6.58
2023-12-30T21:12:10.107Z,6.50
2023-12-30T21:14:38.210Z,6.50
2023-12-30T21:17:06.320Z,6.40
2023-12-30T21:19:35.739Z,6.42
2023-12-30T21:22:06.354Z,6.40
2023-12-30T21:24:34.748Z,6.30
2023-12-30T21:27:03.705Z,6.26
2023-12-30T21:29:31.889Z,6.20
2023-12-30T21:31:59.961Z,6.20
2023-12-30T21:34:27.985Z,6.20
2023-12-30T21:36:56.069Z,6.20
2023-12-30T21:39:24.213Z,6.08
2023-12-30T21:41:52.319Z,5.90
2023-12-30T21:44:21.332Z,5.90
2023-12-30T21:46:49.679Z,5.90
2023-12-30T21:49:19.912Z,5.82
2023-12-30T21:51:48.342Z,5.80
2023-12-30T21:54:16.648Z,5.84
2023-12-30T21:56:44.860Z,5.90
2023-12-30T21:59:12.944Z,5.90
2023-12-30T22:01:41.196Z,5.90
2023-12-30T22:04:09.520Z,5.90
2023-12-30T22:06:37.691Z,5.90
2023-12-30T22:09:06.417Z,5.90
2023-12-30T22:11:34.776Z,5.80
2023-12-30T22:14:02.816Z,5.64
2023-12-30T22:16:31.021Z,5.60
2023-12-30T22:18:59.168Z,5.70
2023-12-30T22:21:28.420Z,5.68
2023-12-30T22:23:56.479Z,5.70
2023-12-30T22:26:24.609Z,5.70
2023-12-30T22:28:52.911Z,5.72
2023-12-30T22:31:21.120Z,5.80
2023-12-30T22:33:50.227Z,5.90
2023-12-30T22:36:32.127Z,6.00
2023-12-30T22:39:00.181Z,6.00
2023-12-30T22:41:28.307Z,6.00
2023-12-30T22:43:56.374Z,5.90
2023-12-30T22:46:24.595Z,5.80
2023-12-30T22:48:52.670Z,5.78
2023-12-30T22:51:20.709Z,5.70
2023-12-30T22:53:50.160Z,5.60
2023-12-30T22:56:18.167Z,5.60
2023-12-30T22:58:46.233Z,5.60
2023-12-30T23:01:14.348Z,5.60
2023-12-30T23:03:42.449Z,5.60
2023-12-30T23:06:10.729Z,5.60
2023-12-30T23:08:38.753Z,5.60
2023-12-30T23:11:08.048Z,5.50
2023-12-30T23:13:36.078Z,5.50
2023-12-30T23:16:04.397Z,5.38
2023-12-30T23:18:32.532Z,5.32
2023-12-30T23:21:00.513Z,5.30
2023-12-30T23:23:28.620Z,5.30
2023-12-30T23:25:56.895Z,5.30
2023-12-30T23:28:24.945Z,5.30
2023-12-30T23:30:53.134Z,5.30
2023-12-30T23:33:21.217Z,5.26
2023-12-30T23:35:49.636Z,5.20
2023-12-30T23:38:17.753Z,5.10
2023-12-30T23:40:45.834Z,5.00
2023-12-30T23:43:14.020Z,4.90
2023-12-30T23:45:42.097Z,4.90
2023-12-30T23:48:10.140Z,4.80
2023-12-30T23:50:38.523Z,4.70
2023-12-30T23:53:06.873Z,4.70
2023-12-30T23:55:35.381Z,4.60
2023-12-30T23:58:03.931Z,4.50
